Terminal Aerodrome Forecast
Issued by NWS

Home | Current Version | Previous Version | Text Only | Print | Product List | Glossary On
Versions: 1 2 3 4 5 6 7 8 9 10 11 12 13 14 15 16 17 18 19 20 21 22 23 24 25 26 27 28 29 30 31 32 33 34 35 36 37 38 39 40 41 42 43
000
FTAK31 PANC 100714 AAA
TAFASN
TAF AMD
PASN 100714Z 1007/1106 07015KT P6SM FEW015 OVC120
     FM101200 06015KT P6SM FEW010 OVC120
     FM101800 03015KT P6SM SCT007 BKN150
     FM110000 03020G28KT P6SM BKN025 BKN120=

USA.gov is the U.S. government's official web portal to all federal, state and local government web resources and services.